Time;durP1;ratioP1;P1;durP2;ratioP2;P2;SDS_P1;SDS_P2;PMS_P1;PMS_P2;Temp;Humidity;BMP_temperature;BMP_pressure;BME280_temperature;BME280_humidity;BME280_pressure;Samples;Min_cycle;Max_cycle;Signal;HPM_P1;HPM_P2
2023/05/29 00:02:15;;;;;;;7.20;3.53;;;16.70;62.20;;;;;;5043218;28;20447;-73
2023/05/29 00:05:02;;;;;;;6.80;3.40;;;16.80;59.00;;;;;;5044601;28;20447;-73
2023/05/29 00:07:50;;;;;;;8.13;3.40;;;16.90;60.20;;;;;;5047278;28;20932;-73
2023/05/29 00:10:37;;;;;;;7.57;3.60;;;16.80;58.90;;;;;;5046202;28;21113;-72
2023/05/29 00:13:22;;;;;;;10.00;3.43;;;16.90;60.30;;;;;;5052848;28;20546;-73
2023/05/29 00:16:09;;;;;;;5.33;3.50;;;16.80;59.80;;;;;;5046425;28;20458;-73
2023/05/29 00:18:54;;;;;;;7.40;3.60;;;16.60;60.20;;;;;;5044241;28;20438;-71
2023/05/29 00:21:40;;;;;;;11.47;4.00;;;16.50;61.30;;;;;;5041577;28;20477;-73
2023/05/29 00:24:26;;;;;;;9.17;3.70;;;16.50;62.40;;;;;;5051529;28;20459;-73
2023/05/29 00:27:13;;;;;;;7.80;3.23;;;16.40;65.00;;;;;;5050036;28;20455;-73
2023/05/29 00:29:59;;;;;;;8.33;3.93;;;16.20;66.70;;;;;;5043372;28;20540;-73
2023/05/29 00:32:45;;;;;;;5.20;3.43;;;16.20;67.90;;;;;;5049887;28;20443;-73
2023/05/29 00:35:31;;;;;;;7.83;4.00;;;16.00;69.10;;;;;;5046469;28;20444;-72
2023/05/29 00:38:16;;;;;;;6.23;3.60;;;15.70;74.20;;;;;;5051525;28;20443;-72
2023/05/29 00:41:03;;;;;;;7.73;3.53;;;15.60;77.20;;;;;;5038847;28;20464;-71
2023/05/29 00:43:49;;;;;;;8.83;3.83;;;15.70;77.40;;;;;;5045002;28;20447;-73
2023/05/29 00:46:35;;;;;;;6.27;3.80;;;15.60;78.20;;;;;;5044879;28;20503;-72
2023/05/29 00:49:22;;;;;;;8.93;3.17;;;15.70;77.00;;;;;;5042822;28;20479;-72
2023/05/29 00:52:10;;;;;;;6.17;3.70;;;15.60;76.40;;;;;;5053116;28;20475;-73
2023/05/29 00:54:56;;;;;;;9.90;3.87;;;15.60;75.90;;;;;;5049386;28;20446;-73
2023/05/29 00:57:45;;;;;;;5.00;3.30;;;15.50;75.40;;;;;;5049043;28;20974;-73
2023/05/29 01:00:30;;;;;;;8.03;3.97;;;15.50;74.00;;;;;;5044055;28;20490;-71
2023/05/29 01:03:16;;;;;;;7.07;3.67;;;15.50;74.90;;;;;;5043934;28;20558;-73
2023/05/29 01:06:03;;;;;;;7.67;3.60;;;15.50;74.80;;;;;;5050619;28;20464;-73
2023/05/29 01:08:49;;;;;;;8.60;4.00;;;15.60;74.30;;;;;;5042156;28;20460;-73
2023/05/29 01:11:47;;;;;;;4.53;3.40;;;15.60;71.90;;;;;;5046359;28;20441;-73
2023/05/29 01:14:45;;;;;;;6.03;3.47;;;15.50;72.60;;;;;;5048916;28;20482;-73
2023/05/29 01:17:41;;;;;;;6.93;3.53;;;15.50;74.30;;;;;;5050735;28;20495;-73
2023/05/29 01:20:35;;;;;;;7.57;3.63;;;15.40;75.30;;;;;;5041957;28;20840;-70
2023/05/29 01:23:46;;;;;;;6.80;3.00;;;15.40;74.80;;;;;;5047298;28;20444;-73
2023/05/29 01:26:51;;;;;;;5.50;3.73;;;15.30;72.30;;;;;;5043332;28;20519;-73
2023/05/29 01:29:38;;;;;;;8.60;4.10;;;15.20;73.20;;;;;;5036821;28;20633;-72
2023/05/29 01:32:25;;;;;;;10.70;3.43;;;15.10;75.30;;;;;;5044804;28;20987;-73
2023/05/29 01:35:11;;;;;;;10.50;4.00;;;15.10;75.90;;;;;;5039408;28;21107;-73
2023/05/29 01:37:56;;;;;;;8.50;3.90;;;14.90;75.40;;;;;;5046635;28;21269;-72
2023/05/29 01:40:42;;;;;;;8.10;3.60;;;15.00;79.60;;;;;;5049815;28;20435;-71
2023/05/29 01:43:29;;;;;;;8.90;4.20;;;15.00;78.10;;;;;;5051874;28;20959;-73
2023/05/29 01:46:16;;;;;;;8.53;5.20;;;15.00;77.70;;;;;;5042633;28;20585;-73
2023/05/29 01:49:01;;;;;;;5.73;3.47;;;15.00;79.60;;;;;;5050409;28;20475;-73
2023/05/29 01:51:47;;;;;;;7.40;3.43;;;14.80;79.70;;;;;;5050963;28;20435;-72
2023/05/29 01:54:32;;;;;;;8.70;3.47;;;14.70;79.10;;;;;;5053665;28;20449;-72
2023/05/29 01:57:18;;;;;;;8.33;3.70;;;14.70;80.00;;;;;;5053038;28;20446;-73
2023/05/29 02:00:08;;;;;;;8.77;3.57;;;14.60;81.40;;;;;;5052769;28;20461;-73
2023/05/29 02:02:54;;;;;;;7.33;3.70;;;14.50;80.80;;;;;;5053735;28;20974;-73
2023/05/29 02:05:39;;;;;;;8.03;3.90;;;14.60;81.80;;;;;;5055638;28;20442;-73
2023/05/29 02:08:25;;;;;;;5.47;3.27;;;14.60;81.90;;;;;;5049862;28;20460;-73
2023/05/29 02:11:10;;;;;;;5.20;2.93;;;14.60;81.80;;;;;;5044914;28;20461;-73
2023/05/29 02:13:56;;;;;;;7.33;3.40;;;14.40;82.50;;;;;;5050246;28;20552;-73
2023/05/29 02:16:43;;;;;;;5.37;3.30;;;14.30;83.80;;;;;;5047815;28;20450;-73
2023/05/29 02:19:29;;;;;;;7.40;3.83;;;14.20;85.60;;;;;;5048448;28;20549;-72
2023/05/29 02:22:14;;;;;;;6.03;3.60;;;14.10;86.40;;;;;;5047981;28;20500;-72
2023/05/29 02:25:00;;;;;;;6.07;4.00;;;14.00;86.60;;;;;;5052375;28;20448;-73
2023/05/29 02:27:45;;;;;;;6.23;4.00;;;14.00;87.10;;;;;;5048707;28;20509;-72
2023/05/29 02:30:31;;;;;;;4.93;3.57;;;13.90;87.90;;;;;;5050184;28;20502;-70
2023/05/29 02:33:18;;;;;;;7.57;3.80;;;13.90;88.90;;;;;;5058322;28;20459;-73
2023/05/29 02:36:04;;;;;;;7.20;4.10;;;13.90;88.90;;;;;;5047466;28;20848;-73
2023/05/29 02:38:49;;;;;;;5.33;3.57;;;13.90;88.80;;;;;;5046226;28;20551;-73
2023/05/29 02:41:35;;;;;;;7.67;3.57;;;13.70;90.20;;;;;;5049777;28;20790;-72
2023/05/29 02:44:20;;;;;;;10.23;4.33;;;13.70;91.00;;;;;;5049350;28;20449;-72
2023/05/29 02:47:06;;;;;;;7.53;4.17;;;13.70;91.40;;;;;;5054009;28;20457;-72
2023/05/29 02:49:52;;;;;;;4.77;3.60;;;13.70;91.40;;;;;;5050293;28;20456;-73
2023/05/29 02:52:39;;;;;;;9.23;4.13;;;13.70;90.90;;;;;;5050874;28;20676;-73
2023/05/29 02:55:24;;;;;;;7.30;4.17;;;13.60;91.10;;;;;;5051885;28;20414;-73
2023/05/29 02:58:11;;;;;;;11.33;4.37;;;13.50;91.20;;;;;;5048238;28;20445;-70
2023/05/29 03:00:56;;;;;;;7.10;3.77;;;13.40;91.70;;;;;;5047482;28;20469;-73
2023/05/29 03:03:42;;;;;;;8.70;3.90;;;13.30;92.70;;;;;;5050825;28;20457;-74
2023/05/29 03:06:29;;;;;;;6.63;4.30;;;13.20;92.70;;;;;;5043596;28;20816;-71
2023/05/29 03:09:15;;;;;;;7.50;4.27;;;13.20;92.90;;;;;;5047101;28;20447;-71
2023/05/29 03:12:01;;;;;;;5.43;3.67;;;13.10;93.00;;;;;;5043512;28;20503;-72
2023/05/29 03:14:46;;;;;;;8.33;3.93;;;13.20;93.10;;;;;;5052183;28;20448;-72
2023/05/29 03:17:31;;;;;;;11.30;4.73;;;13.20;93.20;;;;;;5048436;28;20506;-72
2023/05/29 03:20:17;;;;;;;5.50;3.63;;;13.20;93.40;;;;;;5052198;28;20460;-71
2023/05/29 03:23:04;;;;;;;9.23;3.93;;;13.20;92.90;;;;;;5053964;28;20454;-71
2023/05/29 03:25:49;;;;;;;6.50;3.50;;;13.30;93.10;;;;;;5052955;28;20456;-73
2023/05/29 03:28:35;;;;;;;8.43;4.30;;;13.40;92.90;;;;;;5049704;28;20449;-71
2023/05/29 03:31:21;;;;;;;8.27;3.80;;;13.40;92.70;;;;;;5049072;28;20462;-72
2023/05/29 03:34:07;;;;;;;7.73;4.20;;;13.40;92.70;;;;;;5049654;28;20448;-71
2023/05/29 03:36:53;;;;;;;10.77;3.90;;;13.40;92.90;;;;;;5049916;28;20652;-71
2023/05/29 03:39:39;;;;;;;8.10;4.30;;;13.40;92.50;;;;;;5048678;28;20670;-71
2023/05/29 03:42:25;;;;;;;9.97;4.30;;;13.30;92.40;;;;;;5043524;28;20437;-71
2023/05/29 03:45:11;;;;;;;6.73;3.43;;;13.30;90.80;;;;;;5052240;28;20963;-71
2023/05/29 03:47:56;;;;;;;6.20;3.33;;;13.50;90.60;;;;;;5049938;28;20436;-71
2023/05/29 03:50:41;;;;;;;6.87;4.43;;;13.80;87.80;;;;;;5049426;28;20557;-70
2023/05/29 03:53:27;;;;;;;10.80;3.90;;;13.90;85.20;;;;;;5051940;28;20420;-71
2023/05/29 03:56:14;;;;;;;12.13;4.40;;;14.20;79.60;;;;;;5049169;28;20567;-73
2023/05/29 03:59:00;;;;;;;6.20;3.83;;;14.50;78.60;;;;;;5047726;28;20417;-71
2023/05/29 04:01:45;;;;;;;11.00;4.13;;;14.70;74.00;;;;;;5052057;28;20468;-72
2023/05/29 04:04:31;;;;;;;8.47;4.20;;;14.90;73.00;;;;;;5051388;28;20552;-71
2023/05/29 04:07:18;;;;;;;5.60;3.90;;;15.00;71.40;;;;;;5043481;28;20586;-71
2023/05/29 04:10:03;;;;;;;8.23;4.13;;;15.20;69.40;;;;;;5046487;28;20564;-70
2023/05/29 04:12:50;;;;;;;8.13;4.30;;;15.40;68.10;;;;;;5058223;28;20450;-71
2023/05/29 04:15:36;;;;;;;14.23;3.97;;;15.50;67.10;;;;;;5045400;28;20449;-72
2023/05/29 04:18:21;;;;;;;8.60;3.67;;;15.60;66.80;;;;;;5051821;28;20421;-71
2023/05/29 04:21:07;;;;;;;6.83;3.70;;;15.70;65.60;;;;;;5049756;28;21020;-71
2023/05/29 04:23:53;;;;;;;6.77;3.17;;;15.70;67.10;;;;;;5047595;28;20429;-71
2023/05/29 04:26:40;;;;;;;7.00;3.70;;;15.70;66.20;;;;;;5044202;28;21116;-73
2023/05/29 04:29:27;;;;;;;6.07;3.30;;;15.70;66.60;;;;;;5053583;28;20469;-71
2023/05/29 04:32:13;;;;;;;7.47;4.20;;;15.70;66.80;;;;;;5050488;28;20528;-71
2023/05/29 04:35:01;;;;;;;8.40;4.13;;;15.80;66.10;;;;;;5047232;28;20465;-71
2023/05/29 04:37:46;;;;;;;8.20;3.47;;;15.80;64.90;;;;;;5047772;28;20451;-73
2023/05/29 04:40:33;;;;;;;9.90;3.93;;;15.80;64.20;;;;;;5048317;28;20466;-71
2023/05/29 04:43:18;;;;;;;8.03;3.80;;;15.80;64.90;;;;;;5049584;28;20802;-71
2023/05/29 04:46:05;;;;;;;9.03;3.30;;;15.90;64.40;;;;;;5045097;28;20825;-71
2023/05/29 04:48:52;;;;;;;15.50;4.00;;;16.00;62.50;;;;;;5049066;28;20899;-71
2023/05/29 04:51:40;;;;;;;7.90;3.30;;;16.10;61.80;;;;;;5049288;28;20827;-71
2023/05/29 04:54:25;;;;;;;7.40;3.00;;;16.20;61.90;;;;;;5048957;28;20441;-73
2023/05/29 04:57:11;;;;;;;6.23;3.50;;;16.30;61.90;;;;;;5047966;28;20451;-72
2023/05/29 04:59:56;;;;;;;6.80;3.50;;;16.40;61.30;;;;;;5047235;28;20465;-71
2023/05/29 05:02:44;;;;;;;13.40;4.30;;;16.50;60.40;;;;;;5051079;28;20455;-71
2023/05/29 05:05:29;;;;;;;12.33;4.10;;;16.60;61.00;;;;;;5047324;28;20439;-71
2023/05/29 05:08:14;;;;;;;8.40;3.67;;;16.60;58.60;;;;;;5052162;28;20442;-70
2023/05/29 05:11:01;;;;;;;8.80;4.73;;;16.70;58.10;;;;;;5050313;28;20448;-72
2023/05/29 05:13:46;;;;;;;5.70;4.10;;;16.70;57.40;;;;;;5048590;28;20418;-71
2023/05/29 05:16:32;;;;;;;10.60;4.60;;;16.80;56.60;;;;;;5047383;28;20809;-73
2023/05/29 05:19:19;;;;;;;7.97;4.07;;;16.90;56.40;;;;;;5051554;28;20443;-71
2023/05/29 05:22:05;;;;;;;10.30;3.80;;;16.90;55.40;;;;;;5048945;28;20446;-71
2023/05/29 05:24:52;;;;;;;8.40;3.87;;;16.90;56.60;;;;;;5043218;28;20452;-72
2023/05/29 05:27:37;;;;;;;6.20;3.30;;;16.90;56.10;;;;;;5053060;28;20448;-71
2023/05/29 05:30:22;;;;;;;8.73;4.13;;;16.90;56.30;;;;;;5043935;28;20494;-71
2023/05/29 05:33:08;;;;;;;8.63;4.40;;;16.90;56.90;;;;;;5044295;28;20461;-70
2023/05/29 05:35:55;;;;;;;7.40;3.87;;;16.90;55.20;;;;;;5046689;28;20828;-71
2023/05/29 05:38:40;;;;;;;12.00;4.00;;;17.00;54.60;;;;;;5055411;28;20424;-71
2023/05/29 05:41:26;;;;;;;9.50;3.90;;;17.10;53.20;;;;;;5045574;28;20597;-71
2023/05/29 05:44:11;;;;;;;6.90;3.70;;;17.10;53.30;;;;;;5048532;28;20454;-71
2023/05/29 05:46:57;;;;;;;8.53;3.80;;;17.20;53.80;;;;;;5051606;28;20444;-72
2023/05/29 05:49:43;;;;;;;6.60;3.40;;;17.30;51.50;;;;;;5050607;28;20475;-70
2023/05/29 05:52:32;;;;;;;7.33;3.80;;;17.40;51.30;;;;;;5048258;28;20452;-71
2023/05/29 05:55:17;;;;;;;7.97;4.10;;;17.50;50.60;;;;;;5046531;28;20575;-72
2023/05/29 05:58:03;;;;;;;5.63;3.30;;;17.60;50.90;;;;;;5046454;28;20596;-71
2023/05/29 06:00:52;;;;;;;10.13;3.30;;;17.60;50.00;;;;;;5053330;28;20455;-71
2023/05/29 06:03:38;;;;;;;7.90;3.63;;;17.60;48.80;;;;;;5048891;28;20446;-72
2023/05/29 06:06:23;;;;;;;8.23;3.87;;;17.70;49.80;;;;;;5048097;28;20444;-71
2023/05/29 06:09:10;;;;;;;6.93;3.80;;;17.80;51.00;;;;;;5047418;28;20467;-72
2023/05/29 06:11:56;;;;;;;7.40;4.40;;;17.90;51.10;;;;;;5052514;28;20419;-71
2023/05/29 06:14:41;;;;;;;8.00;3.80;;;18.00;50.20;;;;;;5049338;28;20553;-71
2023/05/29 06:17:27;;;;;;;7.43;3.97;;;18.10;50.00;;;;;;5049289;28;20483;-70
2023/05/29 06:20:13;;;;;;;7.30;4.00;;;18.30;45.70;;;;;;5049148;28;20466;-71
2023/05/29 06:22:58;;;;;;;8.37;3.73;;;18.30;48.00;;;;;;5046946;28;20834;-72
2023/05/29 06:25:45;;;;;;;6.53;3.40;;;18.40;47.10;;;;;;5044732;28;20561;-71
2023/05/29 06:28:31;;;;;;;5.80;3.30;;;18.50;46.60;;;;;;5054552;28;20930;-71
2023/05/29 06:31:16;;;;;;;7.03;4.17;;;18.60;45.90;;;;;;5051812;28;20943;-72
2023/05/29 06:34:02;;;;;;;9.10;4.23;;;18.60;46.70;;;;;;5041438;28;20590;-71
2023/05/29 06:36:47;;;;;;;7.47;4.30;;;18.70;48.20;;;;;;5048290;28;20447;-71
2023/05/29 06:39:33;;;;;;;6.57;3.33;;;18.80;47.60;;;;;;5049634;28;20544;-72
2023/05/29 06:42:20;;;;;;;9.07;3.60;;;18.90;45.80;;;;;;5048662;28;20440;-72
2023/05/29 06:45:07;;;;;;;8.80;4.63;;;19.00;44.60;;;;;;5045934;28;20758;-71
2023/05/29 06:47:52;;;;;;;6.83;3.50;;;19.00;45.80;;;;;;5056631;28;20491;-71
2023/05/29 06:50:38;;;;;;;5.90;3.13;;;19.10;43.50;;;;;;5055284;28;20487;-71
2023/05/29 06:53:23;;;;;;;11.47;4.67;;;19.10;45.60;;;;;;5046667;28;20448;-72
2023/05/29 06:56:09;;;;;;;9.70;3.73;;;19.10;44.90;;;;;;5057407;28;20553;-71
2023/05/29 06:58:56;;;;;;;6.60;4.17;;;19.10;45.60;;;;;;5056999;28;20453;-71
2023/05/29 07:01:41;;;;;;;13.27;3.83;;;19.20;45.50;;;;;;5047610;28;20526;-71
2023/05/29 07:04:27;;;;;;;14.50;4.80;;;19.30;47.80;;;;;;5054466;28;20447;-71
2023/05/29 07:07:12;;;;;;;8.17;3.60;;;19.40;45.40;;;;;;5046937;28;20444;-71
2023/05/29 07:09:58;;;;;;;11.40;3.60;;;19.50;44.80;;;;;;5040784;28;20475;-72
2023/05/29 07:12:43;;;;;;;4.50;3.30;;;19.50;45.60;;;;;;5042724;28;20494;-72
2023/05/29 07:15:30;;;;;;;7.43;3.80;;;19.50;44.20;;;;;;5044225;28;20447;-73
2023/05/29 07:18:15;;;;;;;9.20;4.03;;;19.40;45.70;;;;;;5044868;28;21063;-71
2023/05/29 07:21:01;;;;;;;7.93;3.50;;;19.50;45.60;;;;;;5048047;28;20523;-71
2023/05/29 07:23:47;;;;;;;5.27;3.27;;;19.40;43.90;;;;;;5046360;28;20452;-72
2023/05/29 07:26:33;;;;;;;5.67;3.30;;;19.50;45.70;;;;;;5059622;28;20541;-71
2023/05/29 07:29:20;;;;;;;8.40;3.60;;;19.60;45.90;;;;;;5048751;28;20855;-72
2023/05/29 07:32:07;;;;;;;8.00;4.37;;;19.70;47.80;;;;;;5045868;28;20440;-71
2023/05/29 07:34:52;;;;;;;6.20;3.73;;;19.80;48.30;;;;;;5040880;28;20426;-70
2023/05/29 07:37:38;;;;;;;4.90;3.50;;;19.90;44.70;;;;;;5044489;28;20550;-69
2023/05/29 07:40:23;;;;;;;8.77;4.30;;;19.90;46.40;;;;;;5044910;28;20442;-70
2023/05/29 07:43:09;;;;;;;6.57;3.77;;;20.00;47.10;;;;;;5041884;28;20452;-71
2023/05/29 07:45:55;;;;;;;8.53;3.83;;;20.20;46.40;;;;;;5048322;28;20810;-71
2023/05/29 07:48:41;;;;;;;6.63;3.13;;;20.30;47.10;;;;;;5052776;28;20443;-70
2023/05/29 07:51:27;;;;;;;7.63;3.53;;;20.40;45.50;;;;;;5044806;28;20475;-70
2023/05/29 07:54:13;;;;;;;11.33;4.70;;;20.50;46.60;;;;;;5047614;28;20598;-70
2023/05/29 07:56:58;;;;;;;5.27;3.50;;;20.70;43.90;;;;;;5049909;28;20954;-70
2023/05/29 07:59:44;;;;;;;9.00;4.10;;;20.70;43.10;;;;;;5046993;28;20511;-71
2023/05/29 08:02:29;;;;;;;8.00;3.90;;;20.80;45.00;;;;;;5045836;28;20527;-70
2023/05/29 08:05:16;;;;;;;6.90;3.93;;;20.80;44.10;;;;;;5056960;28;20534;-70
2023/05/29 08:08:01;;;;;;;6.77;3.70;;;20.90;41.60;;;;;;5048795;28;20460;-70
2023/05/29 08:10:47;;;;;;;7.90;3.23;;;21.00;40.60;;;;;;5046352;28;20495;-70
2023/05/29 08:13:33;;;;;;;7.40;4.03;;;21.10;42.40;;;;;;5053314;28;20454;-70
2023/05/29 08:16:18;;;;;;;5.37;3.47;;;21.20;40.80;;;;;;5045974;28;20424;-72
2023/05/29 08:19:05;;;;;;;5.00;3.60;;;21.30;39.40;;;;;;5051686;28;20402;-69
2023/05/29 08:21:52;;;;;;;6.90;3.40;;;21.30;36.90;;;;;;5043870;28;20434;-70
2023/05/29 08:24:37;;;;;;;5.13;3.60;;;21.40;38.50;;;;;;5057020;28;20428;-70
2023/05/29 08:27:22;;;;;;;8.00;4.50;;;21.40;32.90;;;;;;5054825;28;20451;-70
2023/05/29 08:30:09;;;;;;;6.13;3.57;;;21.50;34.00;;;;;;5049729;28;20972;-70
2023/05/29 08:32:54;;;;;;;5.67;3.43;;;21.50;31.60;;;;;;5040802;28;20444;-70
2023/05/29 08:35:40;;;;;;;13.93;3.60;;;21.60;32.90;;;;;;5041302;28;20452;-70
2023/05/29 08:38:26;;;;;;;4.77;3.20;;;21.60;31.10;;;;;;5045874;28;20481;-71
2023/05/29 08:41:18;;;;;;;7.80;4.20;;;21.80;29.90;;;;;;5047691;28;20459;-70
2023/05/29 08:44:05;;;;;;;7.20;4.20;;;21.80;33.10;;;;;;5055203;28;20511;-70
2023/05/29 08:46:55;;;;;;;8.73;4.37;;;21.90;31.60;;;;;;5056361;28;20473;-70
2023/05/29 08:49:43;;;;;;;7.03;3.60;;;22.00;33.30;;;;;;5065469;28;20806;-71
2023/05/29 08:52:35;;;;;;;6.07;3.73;;;22.10;33.60;;;;;;5049010;28;20510;-70
2023/05/29 08:55:22;;;;;;;7.80;4.60;;;22.20;36.50;;;;;;5052885;28;20511;-70
2023/05/29 08:58:08;;;;;;;7.10;4.17;;;22.30;36.40;;;;;;5053293;28;20421;-70
2023/05/29 09:00:55;;;;;;;7.50;4.60;;;22.30;38.90;;;;;;5052723;28;20460;-70
2023/05/29 09:03:41;;;;;;;8.13;4.30;;;22.50;34.90;;;;;;5052252;28;20906;-71
2023/05/29 09:06:27;;;;;;;6.60;4.00;;;22.60;34.20;;;;;;5046158;28;20848;-70
2023/05/29 09:09:13;;;;;;;6.00;3.33;;;22.70;32.80;;;;;;5050122;28;20495;-70
2023/05/29 09:12:00;;;;;;;7.40;3.10;;;22.80;33.00;;;;;;5041659;28;20467;-70
2023/05/29 09:14:47;;;;;;;7.53;3.50;;;22.90;29.70;;;;;;5038232;28;20448;-70
2023/05/29 09:17:33;;;;;;;4.60;3.13;;;23.00;28.90;;;;;;5045409;28;20970;-70
2023/05/29 09:20:23;;;;;;;8.30;3.93;;;23.10;26.90;;;;;;5045628;28;20569;-72
2023/05/29 09:23:10;;;;;;;6.37;3.80;;;23.20;25.70;;;;;;5045212;28;20448;-69
2023/05/29 09:25:55;;;;;;;7.93;4.40;;;23.30;24.40;;;;;;5039564;28;20463;-71
2023/05/29 09:28:42;;;;;;;5.73;3.30;;;23.40;25.10;;;;;;5045239;28;20587;-70
2023/05/29 09:31:28;;;;;;;6.20;3.77;;;23.40;23.20;;;;;;5039448;28;20491;-71
2023/05/29 09:34:14;;;;;;;6.40;3.70;;;23.50;24.10;;;;;;5045006;28;20809;-70
2023/05/29 09:37:07;;;;;;;7.50;3.97;;;23.60;25.60;;;;;;5051659;28;20535;-72
2023/05/29 09:39:53;;;;;;;6.70;4.00;;;23.70;25.20;;;;;;5045999;28;20822;-72
2023/05/29 09:42:38;;;;;;;6.20;3.43;;;23.70;26.50;;;;;;5043905;28;20440;-70
2023/05/29 09:45:27;;;;;;;7.53;3.27;;;23.70;26.90;;;;;;5042972;28;20435;-70
2023/05/29 09:48:14;;;;;;;5.37;3.00;;;23.80;23.00;;;;;;5045957;28;20598;-70
2023/05/29 09:51:03;;;;;;;13.57;3.37;;;23.80;24.20;;;;;;5042795;28;20607;-70
2023/05/29 09:53:50;;;;;;;6.47;2.90;;;23.90;24.70;;;;;;5050763;28;20976;-70
2023/05/29 09:56:37;;;;;;;9.10;3.67;;;24.00;22.20;;;;;;5057533;28;20478;-70
2023/05/29 09:59:25;;;;;;;10.43;4.00;;;24.00;22.50;;;;;;5051068;28;20595;-72
2023/05/29 10:02:13;;;;;;;5.43;3.30;;;24.10;22.80;;;;;;5047763;28;20441;-70
2023/05/29 10:04:59;;;;;;;6.27;3.97;;;24.10;21.50;;;;;;5052767;28;20415;-70
2023/05/29 10:07:48;;;;;;;9.77;3.60;;;24.10;23.40;;;;;;5054815;28;20443;-69
2023/05/29 10:10:35;;;;;;;10.53;3.77;;;24.20;22.90;;;;;;5049577;28;20845;-70
2023/05/29 10:13:24;;;;;;;5.27;3.27;;;24.20;22.20;;;;;;5052071;28;20448;-72
2023/05/29 10:16:13;;;;;;;6.43;4.10;;;24.20;21.20;;;;;;5050698;28;20451;-72
2023/05/29 10:19:01;;;;;;;7.00;4.10;;;24.20;21.10;;;;;;5048321;28;20439;-70
2023/05/29 10:21:47;;;;;;;10.93;3.37;;;24.30;19.90;;;;;;5050391;28;20467;-70
2023/05/29 10:24:34;;;;;;;7.90;3.57;;;24.30;19.90;;;;;;5061181;28;20455;-72
2023/05/29 10:27:19;;;;;;;10.07;3.83;;;24.40;19.50;;;;;;5044963;28;20481;-70
2023/05/29 10:30:10;;;;;;;6.63;3.20;;;24.50;18.60;;;;;;5037808;28;20577;-70
2023/05/29 10:33:27;;;;;;;8.03;3.60;;;24.50;18.60;;;;;;5042416;28;20851;-70
2023/05/29 10:36:17;;;;;;;6.17;3.67;;;24.50;20.10;;;;;;5050218;28;20455;-70
2023/05/29 10:39:03;;;;;;;4.70;3.50;;;24.60;18.70;;;;;;5046015;28;20456;-72
2023/05/29 10:41:50;;;;;;;11.40;3.97;;;24.70;20.10;;;;;;5045730;28;20590;-70
2023/05/29 10:44:43;;;;;;;5.63;3.30;;;24.80;18.10;;;;;;5049977;28;20542;-69
2023/05/29 10:47:29;;;;;;;11.83;4.73;;;24.80;17.90;;;;;;5046815;28;20440;-72
2023/05/29 10:50:38;;;;;;;5.77;3.47;;;24.80;18.90;;;;;;5039329;28;20594;-70
2023/05/29 10:53:26;;;;;;;6.50;3.30;;;24.80;18.40;;;;;;5050322;28;20442;-70
2023/05/29 10:56:20;;;;;;;8.30;4.10;;;24.90;18.90;;;;;;5044762;28;20453;-69
2023/05/29 10:59:08;;;;;;;6.57;3.50;;;25.00;18.50;;;;;;5047807;28;20451;-70
2023/05/29 11:01:54;;;;;;;7.87;3.60;;;25.00;17.60;;;;;;5050579;28;21031;-70
2023/05/29 11:04:41;;;;;;;9.60;3.33;;;25.00;19.90;;;;;;5056403;28;20810;-70
2023/05/29 11:07:33;;;;;;;7.40;3.67;;;25.10;17.60;;;;;;5046285;28;20480;-71
2023/05/29 11:10:56;;;;;;;6.37;3.40;;;25.20;19.10;;;;;;5043655;28;20468;-69
2023/05/29 11:13:44;;;;;;;8.50;3.87;;;25.20;18.30;;;;;;5054631;28;20583;-68
2023/05/29 11:16:39;;;;;;;6.30;3.67;;;25.30;19.20;;;;;;5056437;28;20443;-68
2023/05/29 11:19:27;;;;;;;6.30;3.50;;;25.30;18.50;;;;;;5039630;28;20447;-68
2023/05/29 11:22:24;;;;;;;6.20;3.53;;;25.40;19.30;;;;;;5044589;28;20445;-68
2023/05/29 11:25:09;;;;;;;7.27;3.20;;;25.40;17.20;;;;;;5047298;28;20833;-69
2023/05/29 11:27:57;;;;;;;6.17;3.47;;;25.50;17.40;;;;;;5050274;28;20440;-70
2023/05/29 11:30:44;;;;;;;4.80;2.83;;;25.50;16.80;;;;;;5051970;28;21016;-71
2023/05/29 11:33:31;;;;;;;7.20;3.50;;;25.70;18.40;;;;;;5048585;28;20529;-70
2023/05/29 11:36:17;;;;;;;8.87;4.00;;;25.80;18.60;;;;;;5046570;28;20817;-69
2023/05/29 11:39:03;;;;;;;8.50;3.47;;;25.90;15.40;;;;;;5043604;28;20489;-69
2023/05/29 11:41:52;;;;;;;9.03;4.00;;;26.00;15.00;;;;;;5048974;28;20670;-69
2023/05/29 11:44:39;;;;;;;4.37;3.20;;;26.00;15.80;;;;;;5049918;28;20805;-69
2023/05/29 11:47:24;;;;;;;6.53;3.30;;;26.10;14.90;;;;;;5046145;28;20492;-70
2023/05/29 11:50:19;;;;;;;7.27;3.73;;;26.10;14.30;;;;;;5044458;28;20460;-70
2023/05/29 11:53:07;;;;;;;6.33;3.27;;;26.10;14.20;;;;;;5049217;28;20607;-69
2023/05/29 11:55:52;;;;;;;6.47;3.60;;;26.20;15.40;;;;;;5044831;28;20521;-69
2023/05/29 11:58:39;;;;;;;6.33;4.43;;;26.10;14.30;;;;;;5051024;28;20440;-68
2023/05/29 12:01:26;;;;;;;5.93;3.63;;;26.10;14.60;;;;;;5042490;28;20467;-69
2023/05/29 12:04:16;;;;;;;5.70;3.60;;;26.30;16.60;;;;;;5037352;28;20452;-69
2023/05/29 12:07:01;;;;;;;10.20;3.37;;;26.40;14.00;;;;;;5045796;28;20531;-69
2023/05/29 12:09:48;;;;;;;6.10;3.73;;;26.50;13.40;;;;;;5054655;28;20439;-72
2023/05/29 12:12:35;;;;;;;6.97;3.33;;;26.60;13.90;;;;;;5052782;28;20498;-69
2023/05/29 12:15:21;;;;;;;8.00;3.77;;;26.70;12.40;;;;;;5050344;28;20452;-69
2023/05/29 12:18:08;;;;;;;7.63;4.23;;;26.80;11.70;;;;;;5055346;28;20451;-71
2023/05/29 12:20:58;;;;;;;9.13;4.80;;;26.80;12.70;;;;;;5051544;28;20468;-71
2023/05/29 12:23:44;;;;;;;7.10;4.13;;;26.90;12.10;;;;;;5049335;28;20526;-71
2023/05/29 12:26:32;;;;;;;6.80;3.57;;;26.90;11.10;;;;;;5049645;28;20448;-71
2023/05/29 12:29:18;;;;;;;5.83;3.63;;;26.90;11.10;;;;;;5048892;28;20447;-72
2023/05/29 12:32:03;;;;;;;6.03;3.13;;;27.00;11.10;;;;;;5042739;28;20474;-71
2023/05/29 12:34:52;;;;;;;4.87;3.43;;;27.10;11.90;;;;;;5052699;28;20448;-71
2023/05/29 12:37:43;;;;;;;9.23;3.80;;;27.10;14.00;;;;;;5050902;28;20973;-72
2023/05/29 12:40:29;;;;;;;8.07;3.90;;;27.20;12.20;;;;;;5045710;28;20463;-71
2023/05/29 12:43:15;;;;;;;7.70;3.90;;;27.10;10.80;;;;;;5053690;28;20440;-71
2023/05/29 12:46:00;;;;;;;7.00;4.00;;;27.20;11.30;;;;;;5051718;28;20464;-72
2023/05/29 12:48:46;;;;;;;9.57;3.80;;;27.20;11.60;;;;;;5050267;28;20439;-73
2023/05/29 12:51:34;;;;;;;4.70;3.37;;;27.20;11.90;;;;;;5049394;28;20558;-71
2023/05/29 12:54:19;;;;;;;6.30;4.03;;;27.40;12.20;;;;;;5052422;28;20518;-72
2023/05/29 12:57:05;;;;;;;6.20;3.07;;;27.50;11.50;;;;;;5045860;28;20439;-72
2023/05/29 12:59:50;;;;;;;6.93;3.30;;;27.60;11.70;;;;;;5053964;28;20816;-71
2023/05/29 13:02:36;;;;;;;6.30;3.50;;;27.70;11.90;;;;;;5051953;28;20467;-71
2023/05/29 13:05:22;;;;;;;4.60;2.97;;;27.70;11.50;;;;;;5041494;28;20443;-71
2023/05/29 13:08:09;;;;;;;7.87;4.10;;;27.70;10.60;;;;;;5048457;28;20568;-71
2023/05/29 13:10:55;;;;;;;3.97;2.67;;;27.90;10.00;;;;;;5047525;28;20835;-72
2023/05/29 13:13:40;;;;;;;20.63;3.40;;;27.90;10.10;;;;;;5059552;28;20834;-71
2023/05/29 13:16:26;;;;;;;6.10;3.60;;;28.00;9.80;;;;;;5048453;28;20474;-71
2023/05/29 13:19:11;;;;;;;7.43;3.83;;;28.00;10.50;;;;;;5044105;28;20578;-72
2023/05/29 13:21:57;;;;;;;6.97;4.03;;;28.10;9.90;;;;;;5049018;28;20479;-71
2023/05/29 13:24:44;;;;;;;7.00;4.47;;;28.10;10.50;;;;;;5054886;28;20442;-71
2023/05/29 13:27:29;;;;;;;5.03;3.20;;;28.10;10.40;;;;;;5049784;28;20896;-71
2023/05/29 13:30:15;;;;;;;6.50;3.93;;;28.20;10.00;;;;;;5046969;28;20538;-71
2023/05/29 13:33:00;;;;;;;6.47;3.13;;;28.10;9.50;;;;;;5046762;28;20586;-71
2023/05/29 13:35:46;;;;;;;8.37;3.53;;;28.20;11.10;;;;;;5049047;28;20452;-72
2023/05/29 13:38:31;;;;;;;10.60;3.90;;;28.40;10.90;;;;;;5047583;28;20484;-72
2023/05/29 13:41:18;;;;;;;6.97;3.90;;;28.40;10.10;;;;;;5048283;28;20459;-71
2023/05/29 13:44:04;;;;;;;5.17;2.77;;;28.50;9.20;;;;;;5054490;28;20447;-71
2023/05/29 13:46:50;;;;;;;4.67;3.20;;;28.30;10.30;;;;;;5055877;28;20451;-71
2023/05/29 13:49:35;;;;;;;8.00;3.97;;;28.50;10.10;;;;;;5056922;28;20825;-71
2023/05/29 13:52:20;;;;;;;8.13;3.57;;;28.60;10.20;;;;;;5063716;28;20482;-72
2023/05/29 13:55:08;;;;;;;6.33;3.60;;;28.60;9.30;;;;;;5052443;28;20443;-72
2023/05/29 13:57:55;;;;;;;6.53;4.23;;;28.60;9.30;;;;;;5056961;28;20446;-71
2023/05/29 14:00:40;;;;;;;5.30;3.70;;;28.70;9.30;;;;;;5054109;28;20837;-71
2023/05/29 14:03:28;;;;;;;5.10;3.00;;;28.80;9.40;;;;;;5053919;28;20522;-71
2023/05/29 14:06:13;;;;;;;7.83;3.87;;;28.70;8.90;;;;;;5047465;28;20529;-71
2023/05/29 14:08:59;;;;;;;4.87;3.10;;;28.80;7.80;;;;;;5057192;28;20587;-72
2023/05/29 14:11:44;;;;;;;5.67;3.03;;;28.70;9.00;;;;;;5054452;28;20958;-72
2023/05/29 14:14:31;;;;;;;6.20;3.80;;;28.80;9.40;;;;;;5050116;28;20440;-74
2023/05/29 14:17:17;;;;;;;5.23;3.40;;;28.80;8.00;;;;;;5059182;28;20443;-71
2023/05/29 14:20:04;;;;;;;5.10;3.67;;;28.80;8.70;;;;;;5047599;28;20479;-71
2023/05/29 14:22:49;;;;;;;5.67;3.00;;;28.80;7.20;;;;;;5053625;28;20818;-72
2023/05/29 14:25:35;;;;;;;4.07;3.03;;;28.70;8.50;;;;;;5053707;28;20672;-71
2023/05/29 14:28:20;;;;;;;6.00;3.50;;;28.70;9.30;;;;;;5048414;28;20444;-71